createdAt,value
2017-07-16T00:01:12.763Z,7.37
2017-07-16T00:03:40.303Z,7.30
2017-07-16T00:06:07.891Z,7.57
2017-07-16T00:08:35.435Z,5.13
2017-07-16T00:11:03.015Z,6.90
2017-07-16T00:13:30.574Z,4.97
2017-07-16T00:15:58.129Z,5.20
2017-07-16T00:18:25.706Z,5.93
2017-07-16T00:20:53.278Z,4.53
2017-07-16T00:23:20.811Z,4.60
2017-07-16T00:25:48.383Z,5.93
2017-07-16T00:28:15.940Z,9.40
2017-07-16T00:30:43.508Z,5.83
2017-07-16T00:33:11.068Z,6.10
2017-07-16T00:35:38.618Z,6.57
2017-07-16T00:38:06.175Z,10.00
2017-07-16T00:40:33.754Z,8.50
2017-07-16T00:43:01.357Z,7.67
2017-07-16T00:45:29.695Z,8.07
2017-07-16T00:47:57.253Z,4.93
2017-07-16T00:50:24.835Z,5.10
2017-07-16T00:52:52.393Z,7.43
2017-07-16T00:55:19.935Z,9.47
2017-07-16T00:57:47.634Z,6.30
2017-07-16T01:00:16.035Z,8.50
2017-07-16T01:02:43.612Z,8.33
2017-07-16T01:05:11.203Z,6.43
2017-07-16T01:07:39.404Z,6.37
2017-07-16T01:10:07.038Z,4.63
2017-07-16T01:12:34.604Z,4.10
2017-07-16T01:15:02.144Z,4.30
2017-07-16T01:17:29.715Z,4.97
2017-07-16T01:19:57.275Z,4.97
2017-07-16T01:22:24.953Z,7.20
2017-07-16T01:24:52.508Z,5.80
2017-07-16T01:27:20.071Z,8.87
2017-07-16T01:29:47.607Z,5.27
2017-07-16T01:32:15.190Z,3.83
2017-07-16T01:34:42.723Z,8.50
2017-07-16T01:37:10.298Z,9.83
2017-07-16T01:39:37.889Z,5.50
2017-07-16T01:42:05.450Z,6.33
2017-07-16T01:44:32.997Z,3.93
2017-07-16T01:47:00.663Z,5.10
2017-07-16T01:49:28.219Z,3.80
2017-07-16T01:51:55.790Z,4.70
2017-07-16T01:54:23.328Z,6.17
2017-07-16T01:56:50.910Z,4.43
2017-07-16T01:59:18.470Z,3.43
2017-07-16T02:01:46.013Z,4.03
2017-07-16T02:04:13.553Z,3.40
2017-07-16T02:06:41.095Z,3.20
2017-07-16T02:09:09.424Z,4.90
2017-07-16T02:11:36.978Z,2.90
2017-07-16T02:14:04.551Z,3.23
2017-07-16T02:16:32.102Z,2.93
2017-07-16T02:18:59.683Z,4.10
2017-07-16T02:21:27.228Z,3.93
2017-07-16T02:23:54.796Z,3.17
2017-07-16T02:26:22.331Z,5.40
2017-07-16T02:28:49.899Z,3.90
2017-07-16T02:31:17.431Z,5.57
2017-07-16T02:33:44.992Z,3.10
2017-07-16T02:36:12.614Z,5.80
2017-07-16T02:38:40.179Z,3.23
2017-07-16T02:41:07.735Z,5.30
2017-07-16T02:43:35.298Z,3.17
2017-07-16T02:46:02.881Z,3.60
2017-07-16T02:48:31.237Z,3.10
2017-07-16T02:50:58.790Z,4.23
2017-07-16T02:53:26.363Z,4.63
2017-07-16T02:55:53.903Z,5.47
2017-07-16T02:58:21.448Z,7.00
2017-07-16T03:00:48.999Z,3.83
2017-07-16T03:03:16.539Z,4.40
2017-07-16T03:05:44.088Z,3.10
2017-07-16T03:08:11.642Z,3.00
2017-07-16T03:10:39.975Z,4.90
2017-07-16T03:13:07.534Z,3.90
2017-07-16T03:15:35.071Z,5.13
2017-07-16T03:18:02.662Z,3.23
2017-07-16T03:20:30.201Z,3.50
2017-07-16T03:22:57.775Z,3.40
2017-07-16T03:25:37.196Z,4.70
2017-07-16T03:28:04.798Z,8.03
2017-07-16T03:30:32.383Z,3.73
2017-07-16T03:33:00.698Z,6.20
2017-07-16T03:35:28.299Z,5.33
2017-07-16T03:37:55.990Z,7.37
2017-07-16T03:40:24.326Z,3.70
2017-07-16T03:42:51.884Z,7.80
2017-07-16T03:45:19.428Z,5.93
2017-07-16T03:47:47.007Z,5.00
2017-07-16T03:50:14.550Z,4.67
2017-07-16T03:52:42.083Z,4.70
2017-07-16T03:55:09.715Z,5.60
2017-07-16T03:57:37.359Z,4.90
2017-07-16T04:00:04.916Z,5.77
2017-07-16T04:02:32.466Z,6.20
2017-07-16T04:05:00.017Z,7.87
2017-07-16T04:07:27.614Z,4.70
2017-07-16T04:09:55.156Z,5.87
2017-07-16T04:12:22.697Z,6.30
2017-07-16T04:14:50.271Z,3.60
2017-07-16T04:17:17.816Z,9.30
2017-07-16T04:19:45.399Z,11.50
2017-07-16T04:22:13.054Z,5.50
2017-07-16T04:24:40.610Z,5.83
2017-07-16T04:27:08.162Z,3.00
2017-07-16T04:29:35.702Z,5.43
2017-07-16T04:32:03.309Z,3.50
2017-07-16T04:34:30.891Z,6.60
2017-07-16T04:36:58.426Z,3.73
2017-07-16T04:39:25.998Z,4.37
2017-07-16T04:41:53.552Z,8.27
2017-07-16T04:44:21.148Z,5.37
2017-07-16T04:46:49.485Z,7.20
2017-07-16T04:49:17.144Z,4.07
2017-07-16T04:51:44.703Z,6.40
2017-07-16T04:54:12.264Z,4.23
2017-07-16T04:56:39.834Z,4.00
2017-07-16T04:59:07.411Z,4.40
2017-07-16T05:01:34.943Z,4.93
2017-07-16T05:04:02.515Z,14.80
2017-07-16T05:06:30.078Z,5.37
2017-07-16T05:08:57.639Z,4.60
2017-07-16T05:11:25.202Z,7.13
2017-07-16T05:13:52.745Z,6.67
2017-07-16T05:16:20.278Z,5.30
2017-07-16T05:18:47.870Z,11.67
2017-07-16T05:21:15.403Z,6.63
2017-07-16T05:23:43.006Z,9.97
2017-07-16T05:26:10.535Z,3.90
2017-07-16T05:28:38.100Z,6.93
2017-07-16T05:31:05.622Z,3.70
2017-07-16T05:33:33.964Z,3.57
2017-07-16T05:36:01.518Z,4.80
2017-07-16T05:38:29.062Z,5.10
2017-07-16T05:40:56.638Z,4.20
2017-07-16T05:43:24.170Z,5.27
2017-07-16T05:45:51.703Z,3.90
2017-07-16T05:48:20.008Z,3.67
2017-07-16T05:50:47.570Z,4.00
2017-07-16T05:53:15.163Z,8.07
2017-07-16T05:55:42.728Z,3.30
2017-07-16T05:58:10.291Z,9.97
2017-07-16T06:00:37.856Z,7.87
2017-07-16T06:03:05.410Z,7.90
2017-07-16T06:05:33.071Z,7.83
2017-07-16T06:08:00.639Z,8.93
2017-07-16T06:10:28.202Z,7.40
2017-07-16T06:12:56.781Z,3.70
2017-07-16T06:15:24.341Z,4.20
2017-07-16T06:17:52.408Z,5.10
2017-07-16T06:20:20.071Z,13.80
2017-07-16T06:22:47.597Z,3.80
2017-07-16T06:25:15.151Z,10.23
2017-07-16T06:27:43.456Z,6.60
2017-07-16T06:30:11.031Z,4.93
2017-07-16T06:32:38.581Z,4.23
2017-07-16T06:35:06.111Z,4.00
2017-07-16T06:37:34.410Z,7.33
2017-07-16T06:40:01.943Z,7.13
2017-07-16T06:42:30.243Z,5.47
2017-07-16T06:44:57.826Z,6.93
2017-07-16T06:47:25.395Z,4.97
2017-07-16T06:49:52.929Z,5.27
2017-07-16T06:52:20.483Z,5.00
2017-07-16T06:54:48.017Z,4.30
2017-07-16T06:57:16.546Z,6.50
2017-07-16T06:59:44.082Z,9.60
2017-07-16T07:02:11.679Z,3.63
2017-07-16T07:04:39.238Z,4.30
2017-07-16T07:07:06.898Z,5.90
2017-07-16T07:09:34.469Z,7.67
2017-07-16T07:12:02.046Z,4.60
2017-07-16T07:14:29.575Z,4.87
2017-07-16T07:16:57.137Z,4.13
2017-07-16T07:19:24.703Z,8.27
2017-07-16T07:21:52.258Z,8.00
2017-07-16T07:24:19.804Z,4.50
2017-07-16T07:26:47.383Z,3.73
2017-07-16T07:29:14.910Z,4.80
2017-07-16T07:31:42.467Z,4.07
2017-07-16T07:34:10.786Z,4.27
2017-07-16T07:36:38.450Z,4.83
2017-07-16T07:39:06.003Z,5.30
2017-07-16T07:41:33.574Z,8.00
2017-07-16T07:44:01.134Z,5.40
2017-07-16T07:46:28.799Z,6.93
2017-07-16T07:48:56.358Z,6.70
2017-07-16T07:51:23.923Z,7.40
2017-07-16T07:53:51.480Z,4.73
2017-07-16T07:56:19.148Z,5.53
2017-07-16T07:58:46.684Z,13.63
2017-07-16T08:01:14.252Z,8.03
2017-07-16T08:03:41.839Z,5.23
2017-07-16T08:06:09.387Z,6.00
2017-07-16T08:08:36.919Z,5.60
2017-07-16T08:11:04.507Z,7.13
2017-07-16T08:13:32.166Z,8.67
2017-07-16T08:15:59.730Z,4.30
2017-07-16T08:18:27.299Z,6.50
2017-07-16T08:20:54.850Z,5.23
2017-07-16T08:23:22.398Z,4.50
2017-07-16T08:25:49.927Z,4.80
2017-07-16T08:28:18.354Z,9.70
2017-07-16T08:30:46.018Z,5.27
2017-07-16T08:33:13.583Z,5.60
2017-07-16T08:35:41.124Z,6.93
2017-07-16T08:38:08.782Z,6.40
2017-07-16T08:40:36.358Z,4.97
2017-07-16T08:43:03.955Z,7.23
2017-07-16T08:45:31.503Z,4.80
2017-07-16T08:47:59.142Z,8.23
2017-07-16T08:50:26.686Z,5.27
2017-07-16T08:52:54.229Z,9.50
2017-07-16T08:55:21.770Z,10.83
2017-07-16T08:57:50.074Z,5.40
2017-07-16T09:00:17.614Z,4.67
2017-07-16T09:02:45.949Z,7.23
2017-07-16T09:05:13.484Z,10.50
2017-07-16T09:07:41.067Z,6.00
2017-07-16T09:10:08.631Z,8.90
2017-07-16T09:12:36.182Z,6.43
2017-07-16T09:15:03.719Z,10.07
2017-07-16T09:17:31.250Z,5.73
2017-07-16T09:19:59.596Z,6.10
2017-07-16T09:22:27.161Z,5.53
2017-07-16T09:24:54.704Z,6.93
2017-07-16T09:27:22.276Z,9.60
2017-07-16T09:29:49.834Z,6.17
2017-07-16T09:32:17.374Z,5.73
2017-07-16T09:34:44.955Z,5.63
2017-07-16T09:37:12.517Z,9.10
2017-07-16T09:39:40.060Z,5.17
2017-07-16T09:42:07.591Z,4.70
2017-07-16T09:44:35.911Z,6.13
2017-07-16T09:47:03.438Z,6.03
2017-07-16T09:49:31.033Z,5.30
2017-07-16T09:51:58.591Z,8.33
2017-07-16T09:54:26.157Z,8.00
2017-07-16T09:56:53.711Z,8.77
2017-07-16T09:59:21.282Z,6.83
2017-07-16T10:01:48.839Z,6.13
2017-07-16T10:04:16.405Z,6.33
2017-07-16T10:06:43.934Z,7.83
2017-07-16T10:09:11.524Z,9.03
2017-07-16T10:11:39.083Z,10.57
2017-07-16T10:14:06.617Z,7.97
2017-07-16T10:16:34.151Z,7.10
2017-07-16T10:19:02.449Z,10.17
2017-07-16T10:21:30.044Z,7.97
2017-07-16T10:23:57.700Z,7.90
2017-07-16T10:26:25.271Z,8.50
2017-07-16T10:28:52.930Z,9.60
2017-07-16T10:31:21.312Z,9.83
2017-07-16T10:33:48.881Z,8.30
2017-07-16T10:36:16.427Z,9.80
2017-07-16T10:38:43.996Z,7.70
2017-07-16T10:41:11.536Z,9.33
2017-07-16T10:43:39.107Z,9.10
2017-07-16T10:46:06.670Z,11.60
2017-07-16T10:48:34.232Z,7.90
2017-07-16T10:51:01.790Z,9.00
2017-07-16T10:53:29.354Z,7.80
2017-07-16T10:55:56.910Z,9.90
2017-07-16T10:58:24.443Z,7.83
2017-07-16T11:00:51.987Z,10.03
2017-07-16T11:03:20.291Z,9.60
2017-07-16T11:05:47.875Z,9.63
2017-07-16T11:08:15.406Z,9.37
2017-07-16T11:10:42.995Z,9.53
2017-07-16T11:13:10.562Z,9.90
2017-07-16T11:15:38.126Z,12.40
2017-07-16T11:18:05.685Z,11.93
2017-07-16T11:20:33.332Z,11.63
2017-07-16T11:23:00.892Z,10.80
2017-07-16T11:25:28.471Z,11.07
2017-07-16T11:27:56.022Z,12.50
2017-07-16T11:30:23.575Z,12.20
2017-07-16T11:32:51.151Z,11.33
2017-07-16T11:35:18.815Z,11.40
2017-07-16T11:37:46.370Z,11.97
2017-07-16T11:40:14.030Z,12.60
2017-07-16T11:42:41.599Z,13.87
2017-07-16T11:45:09.167Z,11.10
2017-07-16T11:47:36.707Z,10.53
2017-07-16T11:50:04.280Z,11.30
2017-07-16T11:52:31.938Z,10.50
2017-07-16T11:54:59.498Z,10.50
2017-07-16T11:57:27.063Z,11.00
2017-07-16T11:59:54.619Z,10.20
2017-07-16T12:02:22.178Z,8.67
2017-07-16T12:04:49.838Z,9.70
2017-07-16T12:07:17.415Z,9.10
2017-07-16T12:09:44.953Z,9.33
2017-07-16T12:12:12.527Z,10.03
2017-07-16T12:14:40.095Z,11.43
2017-07-16T12:17:07.643Z,11.30
2017-07-16T12:19:35.218Z,9.70
2017-07-16T12:22:02.774Z,10.50
2017-07-16T12:24:30.331Z,10.07
2017-07-16T12:26:57.862Z,10.60
2017-07-16T12:29:25.475Z,9.47
2017-07-16T12:31:53.116Z,10.87
2017-07-16T12:34:20.683Z,9.47
2017-07-16T12:36:48.236Z,9.13
2017-07-16T12:39:15.798Z,9.77
2017-07-16T12:41:43.359Z,9.10
2017-07-16T12:44:10.942Z,9.20
2017-07-16T12:46:38.576Z,9.10
2017-07-16T12:49:06.116Z,10.80
2017-07-16T12:51:33.714Z,10.10
2017-07-16T12:54:01.266Z,12.13
2017-07-16T12:56:28.831Z,8.73
2017-07-16T12:58:56.381Z,8.23
2017-07-16T13:01:23.957Z,8.30
2017-07-16T13:03:51.512Z,9.40
2017-07-16T13:06:19.172Z,8.47
2017-07-16T13:08:46.715Z,9.17
2017-07-16T13:11:14.294Z,8.60
2017-07-16T13:13:41.832Z,9.43
2017-07-16T13:16:09.403Z,9.27
2017-07-16T13:18:36.983Z,9.33
2017-07-16T13:21:04.538Z,7.73
2017-07-16T13:23:32.093Z,8.10
2017-07-16T13:25:59.631Z,9.13
2017-07-16T13:28:27.228Z,7.83
2017-07-16T13:30:54.783Z,8.20
2017-07-16T13:33:22.451Z,8.73
2017-07-16T13:35:50.216Z,7.77
2017-07-16T13:38:17.880Z,7.70
2017-07-16T13:40:45.411Z,8.53
2017-07-16T13:43:12.975Z,8.90
2017-07-16T13:45:40.567Z,9.40
2017-07-16T13:48:08.129Z,9.73
2017-07-16T13:50:35.653Z,9.33
2017-07-16T13:53:03.230Z,9.53
2017-07-16T13:55:30.771Z,11.60
2017-07-16T13:57:58.330Z,8.77
2017-07-16T14:00:25.932Z,8.00
2017-07-16T14:02:53.478Z,8.97
2017-07-16T14:05:21.019Z,9.43
2017-07-16T14:07:48.603Z,8.00
2017-07-16T14:10:16.171Z,10.43
2017-07-16T14:12:43.708Z,10.03
2017-07-16T14:15:11.466Z,8.53
2017-07-16T14:17:39.053Z,7.57
2017-07-16T14:20:06.718Z,8.90
2017-07-16T14:22:34.275Z,9.07
2017-07-16T14:25:01.934Z,9.13
2017-07-16T14:27:29.497Z,9.47
2017-07-16T14:29:57.163Z,13.30
2017-07-16T14:32:24.730Z,10.70
2017-07-16T14:34:52.406Z,10.47
2017-07-16T14:37:20.053Z,9.67
2017-07-16T14:39:47.610Z,9.53
2017-07-16T14:42:15.161Z,9.40
2017-07-16T14:44:42.935Z,9.27
2017-07-16T14:47:10.498Z,10.80
2017-07-16T14:49:38.034Z,10.63
2017-07-16T14:52:05.622Z,10.83
2017-07-16T14:54:33.190Z,8.33
2017-07-16T14:57:00.838Z,10.67
2017-07-16T14:59:28.407Z,10.13
2017-07-16T15:01:56.088Z,9.60
2017-07-16T15:04:23.627Z,10.60
2017-07-16T15:06:51.194Z,13.20
2017-07-16T15:09:18.750Z,10.97
2017-07-16T15:11:46.414Z,8.53
2017-07-16T15:14:13.983Z,11.30
2017-07-16T15:16:41.639Z,10.07
2017-07-16T15:19:09.202Z,12.10
2017-07-16T15:21:36.806Z,11.10
2017-07-16T15:24:05.134Z,10.67
2017-07-16T15:26:32.802Z,13.27
2017-07-16T15:29:00.334Z,11.83
2017-07-16T15:31:27.929Z,10.90
2017-07-16T15:33:55.585Z,11.60
2017-07-16T15:36:23.242Z,11.63
2017-07-16T15:38:50.787Z,10.37
2017-07-16T15:41:18.359Z,11.23
2017-07-16T15:43:45.939Z,11.37
2017-07-16T15:46:13.509Z,14.90
2017-07-16T15:48:41.154Z,12.03
2017-07-16T15:51:08.818Z,13.23
2017-07-16T15:53:36.358Z,12.10
2017-07-16T15:56:03.900Z,11.47
2017-07-16T15:58:32.222Z,14.80
2017-07-16T16:00:59.767Z,11.57
2017-07-16T16:03:27.347Z,12.13
2017-07-16T16:05:54.910Z,15.83
2017-07-16T16:08:22.467Z,13.77
2017-07-16T16:10:50.027Z,13.90
2017-07-16T16:13:17.575Z,17.50
2017-07-16T16:15:45.151Z,13.27
2017-07-16T16:18:12.710Z,13.20
2017-07-16T16:20:40.271Z,13.00
2017-07-16T16:23:07.934Z,13.80
2017-07-16T16:25:35.476Z,17.03
2017-07-16T16:28:03.051Z,17.70
2017-07-16T16:30:30.610Z,15.57
2017-07-16T16:32:58.171Z,17.10
2017-07-16T16:35:25.723Z,18.23
2017-07-16T16:37:53.300Z,17.60
2017-07-16T16:40:20.854Z,17.43
2017-07-16T16:42:48.395Z,17.33
2017-07-16T16:45:15.935Z,19.90
2017-07-16T16:47:44.272Z,16.00
2017-07-16T16:50:11.922Z,17.40
2017-07-16T16:52:39.531Z,21.27
2017-07-16T16:55:07.871Z,18.03
2017-07-16T16:57:35.540Z,20.83
2017-07-16T17:00:03.079Z,22.40
2017-07-16T17:02:30.635Z,19.77
2017-07-16T17:04:58.214Z,24.63
2017-07-16T17:07:25.774Z,20.47
2017-07-16T17:09:53.423Z,24.27
2017-07-16T17:12:20.995Z,21.97
2017-07-16T17:14:48.751Z,21.80
2017-07-16T17:17:16.304Z,22.23
2017-07-16T17:19:43.883Z,22.73
2017-07-16T17:22:11.452Z,20.13
2017-07-16T17:24:39.003Z,21.80
2017-07-16T17:27:06.545Z,20.43
2017-07-16T17:29:34.115Z,20.47
2017-07-16T17:32:01.653Z,24.43
2017-07-16T17:34:29.237Z,20.93
2017-07-16T17:36:56.809Z,20.97
2017-07-16T17:39:24.374Z,20.30
2017-07-16T17:41:51.930Z,20.50
2017-07-16T17:44:19.496Z,20.83
2017-07-16T17:46:47.139Z,23.17
2017-07-16T17:49:14.679Z,21.53
2017-07-16T17:51:42.371Z,20.73
2017-07-16T17:54:09.910Z,21.40
2017-07-16T17:56:37.496Z,21.40
2017-07-16T17:59:05.059Z,26.83
2017-07-16T18:01:32.722Z,20.23
2017-07-16T18:04:00.253Z,22.70
2017-07-16T18:06:27.847Z,25.30
2017-07-16T18:08:55.399Z,22.77
2017-07-16T18:11:22.985Z,21.73
2017-07-16T18:13:50.526Z,21.60
2017-07-16T18:16:18.062Z,22.10
2017-07-16T18:18:45.633Z,19.70
2017-07-16T18:21:13.231Z,22.83
2017-07-16T18:23:40.865Z,30.73
2017-07-16T18:26:08.435Z,22.27
2017-07-16T18:28:36.089Z,19.30
2017-07-16T18:31:03.654Z,19.33
2017-07-16T18:33:31.197Z,21.87
2017-07-16T18:35:58.751Z,21.30
2017-07-16T18:38:26.295Z,23.53
2017-07-16T18:40:54.619Z,20.97
2017-07-16T18:43:22.158Z,20.37
2017-07-16T18:45:49.702Z,19.87
2017-07-16T18:48:17.297Z,20.17
2017-07-16T18:50:44.835Z,23.70
2017-07-16T18:53:12.395Z,20.10
2017-07-16T18:55:39.937Z,21.10
2017-07-16T18:58:07.547Z,21.87
2017-07-16T19:00:35.107Z,24.17
2017-07-16T19:03:02.771Z,18.50
2017-07-16T19:05:30.332Z,20.27
2017-07-16T19:07:57.993Z,19.23
2017-07-16T19:10:25.532Z,19.97
2017-07-16T19:12:53.096Z,19.47
2017-07-16T19:15:20.638Z,21.57
2017-07-16T19:17:48.230Z,18.57
2017-07-16T19:20:15.886Z,20.40
2017-07-16T19:22:43.555Z,21.03
2017-07-16T19:25:11.100Z,21.30
2017-07-16T19:27:43.879Z,20.53
2017-07-16T19:30:12.247Z,21.27
2017-07-16T19:32:39.787Z,23.00
2017-07-16T19:35:07.398Z,20.20
2017-07-16T19:37:34.965Z,22.57
2017-07-16T19:40:02.526Z,22.63
2017-07-16T19:42:30.087Z,22.57
2017-07-16T19:44:57.642Z,22.87
2017-07-16T19:47:25.180Z,22.53
2017-07-16T19:49:52.763Z,24.00
2017-07-16T19:52:20.298Z,24.57
2017-07-16T19:54:47.841Z,25.97
2017-07-16T19:57:16.185Z,28.87
2017-07-16T19:59:43.770Z,25.93
2017-07-16T20:02:12.079Z,24.80
2017-07-16T20:04:39.679Z,23.70
2017-07-16T20:07:07.218Z,21.37
2017-07-16T20:09:34.788Z,19.97
2017-07-16T20:12:02.442Z,18.17
2017-07-16T20:14:30.105Z,16.87
2017-07-16T20:16:57.678Z,20.70
2017-07-16T20:19:25.249Z,14.87
2017-07-16T20:21:52.804Z,15.30
2017-07-16T20:24:20.374Z,18.17
2017-07-16T20:26:48.113Z,12.80
2017-07-16T20:29:15.682Z,14.03
2017-07-16T20:31:43.243Z,13.53
2017-07-16T20:34:10.811Z,12.60
2017-07-16T20:36:38.370Z,12.30
2017-07-16T20:39:06.051Z,11.90
2017-07-16T20:41:33.745Z,14.30
2017-07-16T20:44:02.138Z,22.50
2017-07-16T20:46:29.759Z,18.40
2017-07-16T20:48:57.357Z,13.37
2017-07-16T20:51:24.958Z,21.47
2017-07-16T20:53:52.527Z,12.53
2017-07-16T20:56:20.079Z,12.57
2017-07-16T20:58:47.622Z,12.63
2017-07-16T21:01:15.159Z,13.97
2017-07-16T21:03:42.770Z,11.83
2017-07-16T21:06:10.338Z,14.27
2017-07-16T21:08:37.873Z,10.17
2017-07-16T21:11:05.442Z,13.33
2017-07-16T21:13:32.980Z,8.80
2017-07-16T21:16:00.582Z,6.50
2017-07-16T21:18:28.112Z,6.07
2017-07-16T21:20:55.691Z,6.63
2017-07-16T21:23:23.226Z,5.10
2017-07-16T21:25:50.782Z,6.97
2017-07-16T21:28:18.312Z,5.33
2017-07-16T21:30:46.650Z,5.23
2017-07-16T21:33:14.187Z,5.17
2017-07-16T21:35:41.778Z,4.80
2017-07-16T21:38:09.335Z,7.40
2017-07-16T21:40:36.990Z,5.27
2017-07-16T21:43:04.564Z,5.03
2017-07-16T21:45:32.226Z,4.50
2017-07-16T21:47:59.759Z,4.23
2017-07-16T21:50:27.343Z,4.67
2017-07-16T21:52:54.878Z,4.47
2017-07-16T21:55:22.467Z,4.30
2017-07-16T21:57:50.010Z,4.80
2017-07-16T22:00:17.587Z,4.90
2017-07-16T22:02:45.123Z,4.80
2017-07-16T22:05:12.712Z,7.90
2017-07-16T22:07:40.834Z,11.07
2017-07-16T22:10:09.164Z,7.80
2017-07-16T22:12:36.719Z,9.70
2017-07-16T22:15:04.279Z,8.63
2017-07-16T22:17:31.807Z,4.70
2017-07-16T22:19:59.338Z,4.90
2017-07-16T22:22:26.874Z,11.03
2017-07-16T22:24:54.426Z,4.20
2017-07-16T22:27:21.986Z,4.50
2017-07-16T22:29:49.542Z,6.53
2017-07-16T22:32:17.071Z,6.97
2017-07-16T22:34:44.663Z,33.20
2017-07-16T22:37:12.204Z,5.97
2017-07-16T22:39:39.787Z,8.20
2017-07-16T22:42:07.352Z,6.70
2017-07-16T22:44:34.886Z,5.07
2017-07-16T22:47:02.423Z,8.10
2017-07-16T22:49:30.720Z,4.83
2017-07-16T22:51:58.312Z,4.63
2017-07-16T22:54:25.875Z,4.93
2017-07-16T22:56:53.421Z,7.73
2017-07-16T22:59:20.957Z,5.90
2017-07-16T23:01:48.491Z,6.13
2017-07-16T23:04:16.028Z,4.50
2017-07-16T23:06:43.671Z,8.50
2017-07-16T23:09:11.231Z,5.70
2017-07-16T23:11:38.790Z,5.40
2017-07-16T23:14:06.396Z,5.67
2017-07-16T23:16:33.919Z,5.20
2017-07-16T23:19:01.450Z,5.30
2017-07-16T23:21:28.982Z,6.43
2017-07-16T23:23:57.282Z,6.10
2017-07-16T23:26:24.930Z,8.60
2017-07-16T23:28:53.262Z,6.53
2017-07-16T23:31:20.923Z,10.90
2017-07-16T23:33:48.480Z,10.73
2017-07-16T23:36:16.143Z,6.37
2017-07-16T23:38:43.678Z,7.13
2017-07-16T23:41:11.268Z,6.27
2017-07-16T23:43:38.824Z,5.33
2017-07-16T23:46:06.384Z,5.33
2017-07-16T23:48:33.951Z,8.50
2017-07-16T23:51:01.511Z,9.77
2017-07-16T23:53:29.068Z,9.30
2017-07-16T23:55:56.634Z,8.57
2017-07-16T23:58:24.162Z,6.93
